sensor_id;sensor_type;location;lat;lon;timestamp;P1;durP1;ratioP1;P2;durP2;ratioP2
22660;SDS011;11497;52.222;21.246;2024-03-07T00:01:58;34.33;;;17.10;;
22660;SDS011;11497;52.222;21.246;2024-03-07T00:04:26;29.25;;;16.30;;
22660;SDS011;11497;52.222;21.246;2024-03-07T00:06:54;30.50;;;16.65;;
22660;SDS011;11497;52.222;21.246;2024-03-07T00:09:22;28.80;;;16.52;;
22660;SDS011;11497;52.222;21.246;2024-03-07T00:11:51;26.30;;;16.10;;
22660;SDS011;11497;52.222;21.246;2024-03-07T00:14:19;28.02;;;17.20;;
22660;SDS011;11497;52.222;21.246;2024-03-07T00:16:47;28.45;;;17.23;;
22660;SDS011;11497;52.222;21.246;2024-03-07T00:19:15;28.23;;;17.88;;
22660;SDS011;11497;52.222;21.246;2024-03-07T00:21:43;28.95;;;17.20;;
22660;SDS011;11497;52.222;21.246;2024-03-07T00:24:11;31.77;;;16.98;;
22660;SDS011;11497;52.222;21.246;2024-03-07T00:26:40;29.05;;;16.95;;
22660;SDS011;11497;52.222;21.246;2024-03-07T00:29:09;28.58;;;16.80;;
22660;SDS011;11497;52.222;21.246;2024-03-07T00:31:37;31.60;;;18.80;;
22660;SDS011;11497;52.222;21.246;2024-03-07T00:34:05;30.80;;;17.85;;
22660;SDS011;11497;52.222;21.246;2024-03-07T00:36:42;31.27;;;18.10;;
22660;SDS011;11497;52.222;21.246;2024-03-07T00:39:11;32.88;;;18.77;;
22660;SDS011;11497;52.222;21.246;2024-03-07T00:41:40;33.15;;;18.52;;
22660;SDS011;11497;52.222;21.246;2024-03-07T00:44:08;31.95;;;18.40;;
22660;SDS011;11497;52.222;21.246;2024-03-07T00:46:36;32.42;;;17.38;;
22660;SDS011;11497;52.222;21.246;2024-03-07T00:49:04;279.08;;;99.13;;
22660;SDS011;11497;52.222;21.246;2024-03-07T00:51:32;45.85;;;23.20;;
22660;SDS011;11497;52.222;21.246;2024-03-07T00:54:01;32.42;;;18.90;;
22660;SDS011;11497;52.222;21.246;2024-03-07T00:56:29;32.50;;;18.48;;
22660;SDS011;11497;52.222;21.246;2024-03-07T00:58:57;30.00;;;17.23;;
22660;SDS011;11497;52.222;21.246;2024-03-07T01:01:24;35.05;;;19.52;;
22660;SDS011;11497;52.222;21.246;2024-03-07T01:03:53;30.77;;;18.70;;
22660;SDS011;11497;52.222;21.246;2024-03-07T01:06:20;37.40;;;20.30;;
22660;SDS011;11497;52.222;21.246;2024-03-07T01:08:49;34.65;;;19.75;;
22660;SDS011;11497;52.222;21.246;2024-03-07T01:11:18;35.92;;;20.42;;
22660;SDS011;11497;52.222;21.246;2024-03-07T01:13:46;31.65;;;18.45;;
22660;SDS011;11497;52.222;21.246;2024-03-07T01:16:14;32.95;;;18.23;;
22660;SDS011;11497;52.222;21.246;2024-03-07T01:18:42;33.35;;;18.48;;
22660;SDS011;11497;52.222;21.246;2024-03-07T01:21:10;29.42;;;18.33;;
22660;SDS011;11497;52.222;21.246;2024-03-07T01:23:38;34.67;;;19.02;;
22660;SDS011;11497;52.222;21.246;2024-03-07T01:26:06;35.10;;;20.33;;
22660;SDS011;11497;52.222;21.246;2024-03-07T01:28:35;37.08;;;21.50;;
22660;SDS011;11497;52.222;21.246;2024-03-07T01:31:04;38.38;;;21.95;;
22660;SDS011;11497;52.222;21.246;2024-03-07T01:33:32;41.63;;;24.23;;
22660;SDS011;11497;52.222;21.246;2024-03-07T01:36:00;31.45;;;19.23;;
22660;SDS011;11497;52.222;21.246;2024-03-07T01:38:28;36.35;;;19.35;;
22660;SDS011;11497;52.222;21.246;2024-03-07T01:40:56;31.70;;;18.63;;
22660;SDS011;11497;52.222;21.246;2024-03-07T01:43:24;28.77;;;16.55;;
22660;SDS011;11497;52.222;21.246;2024-03-07T01:45:53;33.35;;;17.90;;
22660;SDS011;11497;52.222;21.246;2024-03-07T01:48:27;36.47;;;18.33;;
22660;SDS011;11497;52.222;21.246;2024-03-07T01:50:55;32.60;;;17.65;;
22660;SDS011;11497;52.222;21.246;2024-03-07T01:53:25;30.15;;;16.98;;
22660;SDS011;11497;52.222;21.246;2024-03-07T01:55:56;30.30;;;18.10;;
22660;SDS011;11497;52.222;21.246;2024-03-07T01:58:25;30.60;;;17.20;;
22660;SDS011;11497;52.222;21.246;2024-03-07T02:00:54;32.75;;;18.27;;
22660;SDS011;11497;52.222;21.246;2024-03-07T02:03:22;33.88;;;18.08;;
22660;SDS011;11497;52.222;21.246;2024-03-07T02:05:50;30.83;;;17.15;;
22660;SDS011;11497;52.222;21.246;2024-03-07T02:08:18;34.58;;;18.95;;
22660;SDS011;11497;52.222;21.246;2024-03-07T02:10:46;31.38;;;17.88;;
22660;SDS011;11497;52.222;21.246;2024-03-07T02:13:15;34.72;;;18.95;;
22660;SDS011;11497;52.222;21.246;2024-03-07T02:15:44;45.00;;;21.30;;
22660;SDS011;11497;52.222;21.246;2024-03-07T02:18:12;143.68;;;58.70;;
22660;SDS011;11497;52.222;21.246;2024-03-07T02:20:44;55.33;;;29.70;;
22660;SDS011;11497;52.222;21.246;2024-03-07T02:23:13;50.63;;;28.17;;
22660;SDS011;11497;52.222;21.246;2024-03-07T02:25:41;35.97;;;20.48;;
22660;SDS011;11497;52.222;21.246;2024-03-07T02:28:09;43.40;;;24.30;;
22660;SDS011;11497;52.222;21.246;2024-03-07T02:30:37;38.67;;;22.55;;
22660;SDS011;11497;52.222;21.246;2024-03-07T02:33:05;43.20;;;27.05;;
22660;SDS011;11497;52.222;21.246;2024-03-07T02:35:33;35.53;;;19.77;;
22660;SDS011;11497;52.222;21.246;2024-03-07T02:38:02;33.65;;;18.67;;
22660;SDS011;11497;52.222;21.246;2024-03-07T02:40:31;33.63;;;18.35;;
22660;SDS011;11497;52.222;21.246;2024-03-07T02:42:59;34.25;;;17.67;;
22660;SDS011;11497;52.222;21.246;2024-03-07T02:45:31;40.58;;;18.55;;
22660;SDS011;11497;52.222;21.246;2024-03-07T02:47:59;33.38;;;18.25;;
22660;SDS011;11497;52.222;21.246;2024-03-07T02:50:27;34.53;;;18.73;;
22660;SDS011;11497;52.222;21.246;2024-03-07T02:52:55;36.42;;;20.38;;
22660;SDS011;11497;52.222;21.246;2024-03-07T02:55:23;38.60;;;20.25;;
22660;SDS011;11497;52.222;21.246;2024-03-07T02:57:51;38.08;;;20.98;;
22660;SDS011;11497;52.222;21.246;2024-03-07T03:00:19;35.13;;;20.70;;
22660;SDS011;11497;52.222;21.246;2024-03-07T03:02:48;38.03;;;22.75;;
22660;SDS011;11497;52.222;21.246;2024-03-07T03:05:16;52.97;;;27.27;;
22660;SDS011;11497;52.222;21.246;2024-03-07T03:07:46;43.78;;;22.75;;
22660;SDS011;11497;52.222;21.246;2024-03-07T03:10:23;46.47;;;24.58;;
22660;SDS011;11497;52.222;21.246;2024-03-07T03:13:00;45.10;;;23.67;;
22660;SDS011;11497;52.222;21.246;2024-03-07T03:15:28;46.40;;;24.08;;
22660;SDS011;11497;52.222;21.246;2024-03-07T03:17:57;37.55;;;20.88;;
22660;SDS011;11497;52.222;21.246;2024-03-07T03:20:27;42.08;;;22.35;;
22660;SDS011;11497;52.222;21.246;2024-03-07T03:23:02;40.55;;;20.15;;
22660;SDS011;11497;52.222;21.246;2024-03-07T03:25:45;43.77;;;21.53;;
22660;SDS011;11497;52.222;21.246;2024-03-07T03:28:16;41.20;;;21.15;;
22660;SDS011;11497;52.222;21.246;2024-03-07T03:30:46;45.70;;;21.52;;
22660;SDS011;11497;52.222;21.246;2024-03-07T03:33:15;37.85;;;19.95;;
22660;SDS011;11497;52.222;21.246;2024-03-07T03:35:44;40.25;;;21.23;;
22660;SDS011;11497;52.222;21.246;2024-03-07T03:38:12;37.97;;;21.05;;
22660;SDS011;11497;52.222;21.246;2024-03-07T03:40:40;42.10;;;20.83;;
22660;SDS011;11497;52.222;21.246;2024-03-07T03:43:08;43.83;;;21.30;;
22660;SDS011;11497;52.222;21.246;2024-03-07T03:45:36;49.60;;;24.02;;
22660;SDS011;11497;52.222;21.246;2024-03-07T03:48:04;37.28;;;19.85;;
22660;SDS011;11497;52.222;21.246;2024-03-07T03:50:32;44.08;;;21.35;;
22660;SDS011;11497;52.222;21.246;2024-03-07T03:53:00;42.97;;;21.17;;
22660;SDS011;11497;52.222;21.246;2024-03-07T03:55:28;45.92;;;23.30;;
22660;SDS011;11497;52.222;21.246;2024-03-07T03:57:56;45.35;;;21.73;;
22660;SDS011;11497;52.222;21.246;2024-03-07T04:00:24;40.47;;;21.80;;
22660;SDS011;11497;52.222;21.246;2024-03-07T04:02:52;42.00;;;22.02;;
22660;SDS011;11497;52.222;21.246;2024-03-07T04:05:20;45.10;;;22.10;;
22660;SDS011;11497;52.222;21.246;2024-03-07T04:07:49;41.53;;;21.17;;
22660;SDS011;11497;52.222;21.246;2024-03-07T04:10:16;44.92;;;20.95;;
22660;SDS011;11497;52.222;21.246;2024-03-07T04:12:45;93.63;;;35.53;;
22660;SDS011;11497;52.222;21.246;2024-03-07T04:15:14;45.90;;;21.42;;
22660;SDS011;11497;52.222;21.246;2024-03-07T04:17:45;42.45;;;21.83;;
22660;SDS011;11497;52.222;21.246;2024-03-07T04:20:14;44.08;;;22.90;;
22660;SDS011;11497;52.222;21.246;2024-03-07T04:22:46;47.22;;;22.90;;
22660;SDS011;11497;52.222;21.246;2024-03-07T04:25:16;42.58;;;22.58;;
22660;SDS011;11497;52.222;21.246;2024-03-07T04:27:45;44.80;;;22.60;;
22660;SDS011;11497;52.222;21.246;2024-03-07T04:30:13;44.72;;;22.75;;
22660;SDS011;11497;52.222;21.246;2024-03-07T04:32:44;42.47;;;21.42;;
22660;SDS011;11497;52.222;21.246;2024-03-07T04:35:11;43.00;;;22.33;;
22660;SDS011;11497;52.222;21.246;2024-03-07T04:37:43;42.67;;;22.42;;
22660;SDS011;11497;52.222;21.246;2024-03-07T04:40:12;43.35;;;22.60;;
22660;SDS011;11497;52.222;21.246;2024-03-07T04:42:45;42.07;;;21.23;;
22660;SDS011;11497;52.222;21.246;2024-03-07T04:45:17;43.80;;;21.42;;
22660;SDS011;11497;52.222;21.246;2024-03-07T04:47:46;45.63;;;21.95;;
22660;SDS011;11497;52.222;21.246;2024-03-07T04:50:15;47.38;;;23.42;;
22660;SDS011;11497;52.222;21.246;2024-03-07T04:52:47;45.05;;;22.00;;
22660;SDS011;11497;52.222;21.246;2024-03-07T04:55:16;44.00;;;22.13;;
22660;SDS011;11497;52.222;21.246;2024-03-07T04:57:45;44.67;;;22.13;;
22660;SDS011;11497;52.222;21.246;2024-03-07T05:00:13;44.30;;;22.42;;
22660;SDS011;11497;52.222;21.246;2024-03-07T05:02:44;41.53;;;21.63;;
22660;SDS011;11497;52.222;21.246;2024-03-07T05:05:14;40.10;;;21.95;;
22660;SDS011;11497;52.222;21.246;2024-03-07T05:07:49;46.75;;;23.17;;
22660;SDS011;11497;52.222;21.246;2024-03-07T05:10:18;39.67;;;20.83;;
22660;SDS011;11497;52.222;21.246;2024-03-07T05:12:46;40.08;;;21.60;;
22660;SDS011;11497;52.222;21.246;2024-03-07T05:15:14;56.30;;;22.48;;
22660;SDS011;11497;52.222;21.246;2024-03-07T05:17:43;39.15;;;20.65;;
22660;SDS011;11497;52.222;21.246;2024-03-07T05:20:12;41.65;;;20.73;;
22660;SDS011;11497;52.222;21.246;2024-03-07T05:22:40;44.17;;;22.00;;
22660;SDS011;11497;52.222;21.246;2024-03-07T05:25:14;41.15;;;20.75;;
22660;SDS011;11497;52.222;21.246;2024-03-07T05:27:43;46.58;;;21.98;;
22660;SDS011;11497;52.222;21.246;2024-03-07T05:30:12;55.58;;;22.42;;
22660;SDS011;11497;52.222;21.246;2024-03-07T05:32:42;41.72;;;21.25;;
22660;SDS011;11497;52.222;21.246;2024-03-07T05:35:10;41.95;;;21.98;;
22660;SDS011;11497;52.222;21.246;2024-03-07T05:37:39;43.88;;;21.88;;
22660;SDS011;11497;52.222;21.246;2024-03-07T05:40:13;48.42;;;20.58;;
22660;SDS011;11497;52.222;21.246;2024-03-07T05:42:42;44.35;;;22.10;;
22660;SDS011;11497;52.222;21.246;2024-03-07T05:45:09;41.42;;;22.00;;
22660;SDS011;11497;52.222;21.246;2024-03-07T05:47:37;50.10;;;22.38;;
22660;SDS011;11497;52.222;21.246;2024-03-07T05:50:05;53.45;;;26.58;;
22660;SDS011;11497;52.222;21.246;2024-03-07T05:52:37;112.20;;;44.55;;
22660;SDS011;11497;52.222;21.246;2024-03-07T05:55:05;68.22;;;29.55;;
22660;SDS011;11497;52.222;21.246;2024-03-07T05:57:33;63.80;;;30.17;;
22660;SDS011;11497;52.222;21.246;2024-03-07T06:00:01;63.10;;;28.60;;
22660;SDS011;11497;52.222;21.246;2024-03-07T06:02:38;142.50;;;53.25;;
22660;SDS011;11497;52.222;21.246;2024-03-07T06:05:07;169.25;;;61.88;;
22660;SDS011;11497;52.222;21.246;2024-03-07T06:07:43;66.50;;;28.55;;
22660;SDS011;11497;52.222;21.246;2024-03-07T06:10:13;41.58;;;21.10;;
22660;SDS011;11497;52.222;21.246;2024-03-07T06:12:43;43.75;;;20.25;;
22660;SDS011;11497;52.222;21.246;2024-03-07T06:15:31;36.78;;;18.58;;
22660;SDS011;11497;52.222;21.246;2024-03-07T06:17:58;36.58;;;19.70;;
22660;SDS011;11497;52.222;21.246;2024-03-07T06:20:26;32.42;;;18.60;;
22660;SDS011;11497;52.222;21.246;2024-03-07T06:22:54;30.45;;;17.48;;
22660;SDS011;11497;52.222;21.246;2024-03-07T06:25:23;34.88;;;18.35;;
22660;SDS011;11497;52.222;21.246;2024-03-07T06:28:03;32.42;;;17.33;;
22660;SDS011;11497;52.222;21.246;2024-03-07T06:30:38;29.30;;;15.73;;
22660;SDS011;11497;52.222;21.246;2024-03-07T06:33:08;31.33;;;16.70;;
22660;SDS011;11497;52.222;21.246;2024-03-07T06:35:37;28.70;;;15.75;;
22660;SDS011;11497;52.222;21.246;2024-03-07T06:38:06;24.83;;;15.52;;
22660;SDS011;11497;52.222;21.246;2024-03-07T06:40:35;31.35;;;19.33;;
22660;SDS011;11497;52.222;21.246;2024-03-07T06:43:04;31.58;;;17.85;;
22660;SDS011;11497;52.222;21.246;2024-03-07T06:45:37;32.72;;;19.33;;
22660;SDS011;11497;52.222;21.246;2024-03-07T06:48:08;29.92;;;19.35;;
22660;SDS011;11497;52.222;21.246;2024-03-07T06:50:36;22.27;;;14.45;;
22660;SDS011;11497;52.222;21.246;2024-03-07T06:53:06;23.55;;;13.52;;
22660;SDS011;11497;52.222;21.246;2024-03-07T06:55:35;25.23;;;14.10;;
22660;SDS011;11497;52.222;21.246;2024-03-07T06:58:05;35.30;;;18.95;;
22660;SDS011;11497;52.222;21.246;2024-03-07T07:00:33;25.10;;;15.02;;
22660;SDS011;11497;52.222;21.246;2024-03-07T07:03:05;22.58;;;14.43;;
22660;SDS011;11497;52.222;21.246;2024-03-07T07:05:34;24.42;;;13.52;;
22660;SDS011;11497;52.222;21.246;2024-03-07T07:08:03;20.70;;;13.55;;
22660;SDS011;11497;52.222;21.246;2024-03-07T07:10:31;23.42;;;13.07;;
22660;SDS011;11497;52.222;21.246;2024-03-07T07:12:59;20.60;;;13.95;;
22660;SDS011;11497;52.222;21.246;2024-03-07T07:15:27;24.88;;;14.00;;
22660;SDS011;11497;52.222;21.246;2024-03-07T07:17:55;24.38;;;13.52;;
22660;SDS011;11497;52.222;21.246;2024-03-07T07:20:23;25.08;;;13.80;;
22660;SDS011;11497;52.222;21.246;2024-03-07T07:22:51;21.88;;;13.57;;
22660;SDS011;11497;52.222;21.246;2024-03-07T07:25:20;26.33;;;14.38;;
22660;SDS011;11497;52.222;21.246;2024-03-07T07:27:49;22.05;;;12.93;;
22660;SDS011;11497;52.222;21.246;2024-03-07T07:30:18;21.63;;;12.43;;
22660;SDS011;11497;52.222;21.246;2024-03-07T07:32:51;21.65;;;12.27;;
22660;SDS011;11497;52.222;21.246;2024-03-07T07:35:20;23.75;;;12.60;;
22660;SDS011;11497;52.222;21.246;2024-03-07T07:37:49;23.40;;;12.68;;
22660;SDS011;11497;52.222;21.246;2024-03-07T07:40:20;20.55;;;12.70;;
22660;SDS011;11497;52.222;21.246;2024-03-07T07:42:50;23.00;;;12.57;;
22660;SDS011;11497;52.222;21.246;2024-03-07T07:45:19;17.85;;;11.48;;
22660;SDS011;11497;52.222;21.246;2024-03-07T07:47:49;21.90;;;13.00;;
22660;SDS011;11497;52.222;21.246;2024-03-07T07:50:20;21.48;;;12.40;;
22660;SDS011;11497;52.222;21.246;2024-03-07T07:52:50;20.08;;;11.45;;
22660;SDS011;11497;52.222;21.246;2024-03-07T07:55:23;19.95;;;11.00;;
22660;SDS011;11497;52.222;21.246;2024-03-07T07:57:53;20.23;;;11.18;;
22660;SDS011;11497;52.222;21.246;2024-03-07T08:00:23;16.25;;;10.82;;
22660;SDS011;11497;52.222;21.246;2024-03-07T08:02:56;19.88;;;11.85;;
22660;SDS011;11497;52.222;21.246;2024-03-07T08:05:29;18.05;;;11.10;;
22660;SDS011;11497;52.222;21.246;2024-03-07T08:08:04;17.38;;;10.07;;
22660;SDS011;11497;52.222;21.246;2024-03-07T08:10:34;17.23;;;10.05;;
22660;SDS011;11497;52.222;21.246;2024-03-07T08:13:03;19.15;;;10.18;;
22660;SDS011;11497;52.222;21.246;2024-03-07T08:15:33;19.80;;;10.65;;
22660;SDS011;11497;52.222;21.246;2024-03-07T08:18:01;15.93;;;9.82;;
22660;SDS011;11497;52.222;21.246;2024-03-07T08:20:36;15.40;;;9.57;;
22660;SDS011;11497;52.222;21.246;2024-03-07T08:23:05;14.10;;;8.52;;
22660;SDS011;11497;52.222;21.246;2024-03-07T08:25:33;12.63;;;8.43;;
22660;SDS011;11497;52.222;21.246;2024-03-07T08:28:01;14.43;;;9.23;;
22660;SDS011;11497;52.222;21.246;2024-03-07T08:30:29;17.85;;;9.30;;
22660;SDS011;11497;52.222;21.246;2024-03-07T08:32:57;13.45;;;8.95;;
22660;SDS011;11497;52.222;21.246;2024-03-07T08:35:29;13.20;;;8.60;;
22660;SDS011;11497;52.222;21.246;2024-03-07T08:37:57;14.38;;;8.52;;
22660;SDS011;11497;52.222;21.246;2024-03-07T08:40:26;13.52;;;7.35;;
22660;SDS011;11497;52.222;21.246;2024-03-07T08:43:00;10.35;;;6.68;;
22660;SDS011;11497;52.222;21.246;2024-03-07T08:45:30;10.38;;;7.85;;
22660;SDS011;11497;52.222;21.246;2024-03-07T08:48:02;13.63;;;7.70;;
22660;SDS011;11497;52.222;21.246;2024-03-07T08:50:36;12.60;;;7.70;;
22660;SDS011;11497;52.222;21.246;2024-03-07T08:53:06;12.55;;;8.73;;
22660;SDS011;11497;52.222;21.246;2024-03-07T08:55:34;12.38;;;6.95;;
22660;SDS011;11497;52.222;21.246;2024-03-07T08:58:03;12.75;;;7.95;;
22660;SDS011;11497;52.222;21.246;2024-03-07T09:00:34;10.50;;;7.32;;
22660;SDS011;11497;52.222;21.246;2024-03-07T09:03:06;13.00;;;6.95;;
22660;SDS011;11497;52.222;21.246;2024-03-07T09:05:39;13.93;;;7.72;;
22660;SDS011;11497;52.222;21.246;2024-03-07T09:08:08;10.85;;;7.78;;
22660;SDS011;11497;52.222;21.246;2024-03-07T09:10:36;12.82;;;7.25;;
22660;SDS011;11497;52.222;21.246;2024-03-07T09:13:04;12.63;;;7.57;;
22660;SDS011;11497;52.222;21.246;2024-03-07T09:15:33;9.88;;;6.90;;
22660;SDS011;11497;52.222;21.246;2024-03-07T09:18:00;11.98;;;7.10;;
22660;SDS011;11497;52.222;21.246;2024-03-07T09:20:31;11.57;;;7.20;;
22660;SDS011;11497;52.222;21.246;2024-03-07T09:22:58;12.05;;;6.22;;
22660;SDS011;11497;52.222;21.246;2024-03-07T09:25:27;11.88;;;6.85;;
22660;SDS011;11497;52.222;21.246;2024-03-07T09:27:59;13.30;;;7.55;;
22660;SDS011;11497;52.222;21.246;2024-03-07T09:30:27;11.25;;;6.75;;
22660;SDS011;11497;52.222;21.246;2024-03-07T09:32:57;11.32;;;6.90;;
22660;SDS011;11497;52.222;21.246;2024-03-07T09:35:25;8.70;;;6.63;;
22660;SDS011;11497;52.222;21.246;2024-03-07T09:37:53;12.48;;;7.55;;
22660;SDS011;11497;52.222;21.246;2024-03-07T09:40:22;10.40;;;6.85;;
22660;SDS011;11497;52.222;21.246;2024-03-07T09:42:53;10.65;;;6.68;;
22660;SDS011;11497;52.222;21.246;2024-03-07T09:45:28;12.70;;;7.00;;
22660;SDS011;11497;52.222;21.246;2024-03-07T09:47:58;10.40;;;7.05;;
22660;SDS011;11497;52.222;21.246;2024-03-07T09:50:29;10.00;;;6.80;;
22660;SDS011;11497;52.222;21.246;2024-03-07T09:52:58;9.90;;;6.78;;
22660;SDS011;11497;52.222;21.246;2024-03-07T09:55:27;10.68;;;6.93;;
22660;SDS011;11497;52.222;21.246;2024-03-07T09:57:56;11.38;;;6.47;;
22660;SDS011;11497;52.222;21.246;2024-03-07T10:00:27;10.20;;;6.63;;
22660;SDS011;11497;52.222;21.246;2024-03-07T10:03:05;9.15;;;6.38;;
22660;SDS011;11497;52.222;21.246;2024-03-07T10:05:36;10.30;;;6.28;;
22660;SDS011;11497;52.222;21.246;2024-03-07T10:08:05;10.30;;;6.57;;
22660;SDS011;11497;52.222;21.246;2024-03-07T10:10:35;11.05;;;5.80;;
22660;SDS011;11497;52.222;21.246;2024-03-07T10:13:03;9.70;;;6.22;;
22660;SDS011;11497;52.222;21.246;2024-03-07T10:15:32;11.18;;;6.95;;
22660;SDS011;11497;52.222;21.246;2024-03-07T10:18:01;11.60;;;6.68;;
22660;SDS011;11497;52.222;21.246;2024-03-07T10:20:33;10.43;;;6.13;;
22660;SDS011;11497;52.222;21.246;2024-03-07T10:23:03;10.13;;;6.32;;
22660;SDS011;11497;52.222;21.246;2024-03-07T10:25:31;10.90;;;7.10;;
22660;SDS011;11497;52.222;21.246;2024-03-07T10:27:59;11.57;;;6.80;;
22660;SDS011;11497;52.222;21.246;2024-03-07T10:30:31;11.35;;;7.35;;
22660;SDS011;11497;52.222;21.246;2024-03-07T10:33:07;12.50;;;7.00;;
22660;SDS011;11497;52.222;21.246;2024-03-07T10:35:36;11.35;;;7.30;;
22660;SDS011;11497;52.222;21.246;2024-03-07T10:38:04;8.55;;;6.20;;
22660;SDS011;11497;52.222;21.246;2024-03-07T10:40:41;11.32;;;6.72;;
22660;SDS011;11497;52.222;21.246;2024-03-07T10:43:10;11.23;;;6.95;;
22660;SDS011;11497;52.222;21.246;2024-03-07T10:45:45;11.27;;;6.85;;
22660;SDS011;11497;52.222;21.246;2024-03-07T10:48:19;12.77;;;7.60;;
22660;SDS011;11497;52.222;21.246;2024-03-07T10:50:54;10.95;;;6.93;;
22660;SDS011;11497;52.222;21.246;2024-03-07T10:54:24;11.45;;;7.22;;
22660;SDS011;11497;52.222;21.246;2024-03-07T10:57:05;10.82;;;7.05;;
22660;SDS011;11497;52.222;21.246;2024-03-07T10:59:49;11.48;;;7.22;;
22660;SDS011;11497;52.222;21.246;2024-03-07T11:04:55;11.48;;;6.85;;
22660;SDS011;11497;52.222;21.246;2024-03-07T11:07:24;11.93;;;6.82;;
22660;SDS011;11497;52.222;21.246;2024-03-07T11:09:54;16.83;;;7.47;;
22660;SDS011;11497;52.222;21.246;2024-03-07T11:12:23;11.55;;;6.97;;
22660;SDS011;11497;52.222;21.246;2024-03-07T11:14:54;13.70;;;7.13;;
22660;SDS011;11497;52.222;21.246;2024-03-07T11:17:24;13.77;;;7.70;;
22660;SDS011;11497;52.222;21.246;2024-03-07T11:19:53;11.63;;;7.38;;
22660;SDS011;11497;52.222;21.246;2024-03-07T11:22:30;12.70;;;7.55;;
22660;SDS011;11497;52.222;21.246;2024-03-07T11:25:02;13.63;;;7.82;;
22660;SDS011;11497;52.222;21.246;2024-03-07T11:27:37;10.55;;;7.43;;
22660;SDS011;11497;52.222;21.246;2024-03-07T11:30:06;12.38;;;7.43;;
22660;SDS011;11497;52.222;21.246;2024-03-07T11:32:35;11.05;;;7.47;;
22660;SDS011;11497;52.222;21.246;2024-03-07T11:35:05;12.68;;;7.32;;
22660;SDS011;11497;52.222;21.246;2024-03-07T11:37:43;13.80;;;7.47;;
22660;SDS011;11497;52.222;21.246;2024-03-07T11:42:52;13.45;;;7.35;;
22660;SDS011;11497;52.222;21.246;2024-03-07T11:45:23;12.75;;;7.38;;
22660;SDS011;11497;52.222;21.246;2024-03-07T11:47:56;12.07;;;6.80;;
22660;SDS011;11497;52.222;21.246;2024-03-07T11:50:46;11.60;;;7.30;;
22660;SDS011;11497;52.222;21.246;2024-03-07T11:53:14;11.02;;;7.50;;
22660;SDS011;11497;52.222;21.246;2024-03-07T11:55:43;12.77;;;7.32;;
22660;SDS011;11497;52.222;21.246;2024-03-07T12:00:41;14.20;;;7.57;;
22660;SDS011;11497;52.222;21.246;2024-03-07T12:03:12;11.73;;;7.30;;
22660;SDS011;11497;52.222;21.246;2024-03-07T12:05:41;15.50;;;7.93;;
22660;SDS011;11497;52.222;21.246;2024-03-07T12:08:10;12.30;;;7.90;;
22660;SDS011;11497;52.222;21.246;2024-03-07T12:10:39;11.73;;;7.15;;
22660;SDS011;11497;52.222;21.246;2024-03-07T12:13:15;12.52;;;7.25;;
22660;SDS011;11497;52.222;21.246;2024-03-07T12:15:43;10.90;;;7.72;;
22660;SDS011;11497;52.222;21.246;2024-03-07T12:18:11;12.07;;;7.55;;
22660;SDS011;11497;52.222;21.246;2024-03-07T12:20:44;11.30;;;7.38;;
22660;SDS011;11497;52.222;21.246;2024-03-07T12:23:23;11.30;;;7.07;;
22660;SDS011;11497;52.222;21.246;2024-03-07T12:26:03;12.70;;;7.53;;
22660;SDS011;11497;52.222;21.246;2024-03-07T12:28:33;12.70;;;7.80;;
22660;SDS011;11497;52.222;21.246;2024-03-07T12:31:02;12.95;;;7.47;;
22660;SDS011;11497;52.222;21.246;2024-03-07T12:33:32;13.43;;;7.88;;
22660;SDS011;11497;52.222;21.246;2024-03-07T12:36:07;14.35;;;8.07;;
22660;SDS011;11497;52.222;21.246;2024-03-07T12:38:36;13.43;;;8.00;;
22660;SDS011;11497;52.222;21.246;2024-03-07T12:41:06;10.40;;;6.80;;
22660;SDS011;11497;52.222;21.246;2024-03-07T12:43:44;10.30;;;6.80;;
22660;SDS011;11497;52.222;21.246;2024-03-07T12:46:16;16.30;;;8.15;;
22660;SDS011;11497;52.222;21.246;2024-03-07T12:48:45;10.80;;;7.15;;
22660;SDS011;11497;52.222;21.246;2024-03-07T12:51:14;11.98;;;7.45;;
22660;SDS011;11497;52.222;21.246;2024-03-07T12:53:46;12.68;;;7.72;;
22660;SDS011;11497;52.222;21.246;2024-03-07T12:56:15;12.48;;;7.38;;
22660;SDS011;11497;52.222;21.246;2024-03-07T12:58:46;14.05;;;7.93;;
22660;SDS011;11497;52.222;21.246;2024-03-07T13:01:17;13.68;;;8.45;;
22660;SDS011;11497;52.222;21.246;2024-03-07T13:03:47;14.70;;;8.98;;
22660;SDS011;11497;52.222;21.246;2024-03-07T13:06:16;12.20;;;7.55;;
22660;SDS011;11497;52.222;21.246;2024-03-07T13:08:53;18.55;;;10.02;;
22660;SDS011;11497;52.222;21.246;2024-03-07T13:11:21;16.02;;;8.13;;
22660;SDS011;11497;52.222;21.246;2024-03-07T13:13:50;15.73;;;9.00;;
22660;SDS011;11497;52.222;21.246;2024-03-07T13:16:19;13.75;;;8.90;;
22660;SDS011;11497;52.222;21.246;2024-03-07T13:18:47;13.90;;;8.82;;
22660;SDS011;11497;52.222;21.246;2024-03-07T13:21:15;12.85;;;8.23;;
22660;SDS011;11497;52.222;21.246;2024-03-07T13:23:44;13.98;;;8.43;;
22660;SDS011;11497;52.222;21.246;2024-03-07T13:26:12;12.75;;;7.97;;
22660;SDS011;11497;52.222;21.246;2024-03-07T13:28:51;13.63;;;8.27;;
22660;SDS011;11497;52.222;21.246;2024-03-07T13:31:20;13.55;;;8.20;;
22660;SDS011;11497;52.222;21.246;2024-03-07T13:33:50;15.10;;;7.60;;
22660;SDS011;11497;52.222;21.246;2024-03-07T13:36:18;15.27;;;8.90;;
22660;SDS011;11497;52.222;21.246;2024-03-07T13:38:51;12.88;;;7.53;;
22660;SDS011;11497;52.222;21.246;2024-03-07T13:41:19;13.00;;;7.90;;
22660;SDS011;11497;52.222;21.246;2024-03-07T13:43:48;13.52;;;7.18;;
22660;SDS011;11497;52.222;21.246;2024-03-07T13:46:16;13.90;;;8.32;;
22660;SDS011;11497;52.222;21.246;2024-03-07T13:48:44;14.60;;;8.55;;
22660;SDS011;11497;52.222;21.246;2024-03-07T13:51:13;14.95;;;8.30;;
22660;SDS011;11497;52.222;21.246;2024-03-07T13:53:43;14.23;;;7.85;;
22660;SDS011;11497;52.222;21.246;2024-03-07T13:56:23;12.73;;;8.10;;
22660;SDS011;11497;52.222;21.246;2024-03-07T14:01:41;10.57;;;7.25;;
22660;SDS011;11497;52.222;21.246;2024-03-07T14:04:45;14.73;;;7.53;;
22660;SDS011;11497;52.222;21.246;2024-03-07T14:11:01;12.55;;;7.82;;
22660;SDS011;11497;52.222;21.246;2024-03-07T14:16:44;13.25;;;7.43;;
22660;SDS011;11497;52.222;21.246;2024-03-07T14:19:47;15.63;;;7.97;;
22660;SDS011;11497;52.222;21.246;2024-03-07T14:22:52;13.23;;;7.90;;
22660;SDS011;11497;52.222;21.246;2024-03-07T14:25:38;16.20;;;8.77;;
22660;SDS011;11497;52.222;21.246;2024-03-07T14:31:16;13.13;;;7.72;;
22660;SDS011;11497;52.222;21.246;2024-03-07T14:33:48;16.33;;;8.75;;
22660;SDS011;11497;52.222;21.246;2024-03-07T14:36:52;15.77;;;7.90;;
22660;SDS011;11497;52.222;21.246;2024-03-07T14:39:24;11.32;;;7.05;;
22660;SDS011;11497;52.222;21.246;2024-03-07T14:41:54;11.90;;;7.88;;
22660;SDS011;11497;52.222;21.246;2024-03-07T14:44:28;14.13;;;7.90;;
22660;SDS011;11497;52.222;21.246;2024-03-07T14:47:00;14.05;;;7.75;;
22660;SDS011;11497;52.222;21.246;2024-03-07T14:49:34;10.73;;;6.78;;
22660;SDS011;11497;52.222;21.246;2024-03-07T14:52:02;13.80;;;8.13;;
22660;SDS011;11497;52.222;21.246;2024-03-07T14:54:37;13.65;;;7.57;;